Capitol Logistics 7326

Operating for MZN



KSBD
San Bernardino International Airport
San Bernardino, California
KBWI
Baltimore/Washington International Thurgood Marshall Airport
Baltimore, Maryland

Route Details

Aircraft Information
Primary: Boeing 767-300BDSF
Backup: Boeing 757-200SF
Route Data
Distance: 1966nm
Duration: 4h 15m
Recm'd Route: HEC J6 EED J236 TBC J64 RSK J110 ALS J102 SLN J18 ALBRT J64 FWA AIR KEMAN ANTHM3
Origin Wx: KSBD 141854Z 00000KT 7SM BKN047 16/06 A2999
Dest. Wx: KBWI 141927Z 19004KT 2SM -RA BR SCT025 BKN055 OVC080 15/12 A2999 RMK AO2 SFC VIS 5 P0002 T01500117
Notes: